sensor_id;sensor_type;location;lat;lon;timestamp;pressure;altitude;pressure_sealevel;temperature;humidity
14120;BME280;7138;49.246;9.100;2023-02-04T00:00:01;99995.91;;;9.09;100.00
14120;BME280;7138;49.246;9.100;2023-02-04T00:02:27;99995.13;;;9.12;100.00
14120;BME280;7138;49.246;9.100;2023-02-04T00:04:53;100000.78;;;8.99;100.00
14120;BME280;7138;49.246;9.100;2023-02-04T00:07:19;99994.09;;;9.05;100.00
14120;BME280;7138;49.246;9.100;2023-02-04T00:09:45;100001.78;;;9.04;100.00
14120;BME280;7138;49.246;9.100;2023-02-04T00:12:13;100002.75;;;9.07;100.00
14120;BME280;7138;49.246;9.100;2023-02-04T00:14:39;99998.53;;;9.11;100.00
14120;BME280;7138;49.246;9.100;2023-02-04T00:17:04;99994.34;;;9.14;100.00
14120;BME280;7138;49.246;9.100;2023-02-04T00:19:32;100002.78;;;9.09;100.00
14120;BME280;7138;49.246;9.100;2023-02-04T00:21:58;100004.56;;;9.11;100.00
14120;BME280;7138;49.246;9.100;2023-02-04T00:24:24;100001.69;;;9.01;100.00
14120;BME280;7138;49.246;9.100;2023-02-04T00:26:50;100015.09;;;8.88;100.00
14120;BME280;7138;49.246;9.100;2023-02-04T00:29:17;100016.59;;;8.79;100.00
14120;BME280;7138;49.246;9.100;2023-02-04T00:31:42;100015.84;;;8.84;100.00
14120;BME280;7138;49.246;9.100;2023-02-04T00:34:08;100019.22;;;8.81;100.00
14120;BME280;7138;49.246;9.100;2023-02-04T00:36:34;100023.59;;;8.84;100.00
14120;BME280;7138;49.246;9.100;2023-02-04T00:39:00;100007.97;;;8.79;100.00
14120;BME280;7138;49.246;9.100;2023-02-04T00:41:26;100027.00;;;8.83;100.00
14120;BME280;7138;49.246;9.100;2023-02-04T00:43:51;100028.59;;;8.77;100.00
14120;BME280;7138;49.246;9.100;2023-02-04T00:46:18;100029.63;;;8.84;100.00
14120;BME280;7138;49.246;9.100;2023-02-04T00:48:44;100027.91;;;8.85;100.00
14120;BME280;7138;49.246;9.100;2023-02-04T00:51:10;100026.13;;;8.82;100.00
14120;BME280;7138;49.246;9.100;2023-02-04T00:53:36;100024.06;;;8.70;100.00
14120;BME280;7138;49.246;9.100;2023-02-04T00:56:02;100036.88;;;8.67;100.00
14120;BME280;7138;49.246;9.100;2023-02-04T00:58:27;100038.38;;;8.59;100.00
14120;BME280;7138;49.246;9.100;2023-02-04T01:00:53;100031.56;;;8.61;100.00
14120;BME280;7138;49.246;9.100;2023-02-04T01:03:20;100026.63;;;8.69;100.00
14120;BME280;7138;49.246;9.100;2023-02-04T01:05:46;100045.41;;;8.65;100.00
14120;BME280;7138;49.246;9.100;2023-02-04T01:08:12;100041.16;;;8.67;100.00
14120;BME280;7138;49.246;9.100;2023-02-04T01:10:38;100037.75;;;8.68;100.00
14120;BME280;7138;49.246;9.100;2023-02-04T01:13:04;100026.47;;;8.64;100.00
14120;BME280;7138;49.246;9.100;2023-02-04T01:15:30;100045.59;;;8.72;100.00
14120;BME280;7138;49.246;9.100;2023-02-04T01:17:55;100045.69;;;8.75;100.00
14120;BME280;7138;49.246;9.100;2023-02-04T01:20:23;100038.84;;;8.76;100.00
14120;BME280;7138;49.246;9.100;2023-02-04T01:22:49;100040.44;;;8.72;100.00
14120;BME280;7138;49.246;9.100;2023-02-04T01:25:15;100049.94;;;8.73;100.00
14120;BME280;7138;49.246;9.100;2023-02-04T01:27:41;100047.25;;;8.69;100.00
14120;BME280;7138;49.246;9.100;2023-02-04T01:30:10;100023.09;;;8.65;100.00
14120;BME280;7138;49.246;9.100;2023-02-04T01:32:36;100032.72;;;8.72;100.00
14120;BME280;7138;49.246;9.100;2023-02-04T01:35:01;100045.44;;;8.66;100.00
14120;BME280;7138;49.246;9.100;2023-02-04T01:37:29;100045.53;;;8.69;100.00
14120;BME280;7138;49.246;9.100;2023-02-04T01:39:57;100052.00;;;8.55;100.00
14120;BME280;7138;49.246;9.100;2023-02-04T01:42:23;100059.81;;;8.58;100.00
14120;BME280;7138;49.246;9.100;2023-02-04T01:44:50;100055.56;;;8.60;100.00
14120;BME280;7138;49.246;9.100;2023-02-04T01:47:17;100063.47;;;8.66;100.00
14120;BME280;7138;49.246;9.100;2023-02-04T01:49:46;100064.53;;;8.73;100.00
14120;BME280;7138;49.246;9.100;2023-02-04T01:52:14;100065.94;;;8.62;100.00
14120;BME280;7138;49.246;9.100;2023-02-04T01:54:42;100065.22;;;8.66;100.00
14120;BME280;7138;49.246;9.100;2023-02-04T01:57:14;100067.91;;;8.70;100.00
14120;BME280;7138;49.246;9.100;2023-02-04T01:59:42;100068.78;;;8.71;100.00
14120;BME280;7138;49.246;9.100;2023-02-04T02:02:38;100053.69;;;8.55;100.00
14120;BME280;7138;49.246;9.100;2023-02-04T02:05:11;100057.06;;;8.52;100.00
14120;BME280;7138;49.246;9.100;2023-02-04T02:07:38;100063.81;;;8.47;100.00
14120;BME280;7138;49.246;9.100;2023-02-04T02:10:08;100074.75;;;8.40;100.00
14120;BME280;7138;49.246;9.100;2023-02-04T02:12:35;100085.66;;;8.32;99.60
14120;BME280;7138;49.246;9.100;2023-02-04T02:15:02;100083.88;;;8.29;98.21
14120;BME280;7138;49.246;9.100;2023-02-04T02:17:28;100068.53;;;8.34;98.06
14120;BME280;7138;49.246;9.100;2023-02-04T02:19:54;100058.19;;;8.32;97.71
14120;BME280;7138;49.246;9.100;2023-02-04T02:22:27;100064.41;;;8.39;97.76
14120;BME280;7138;49.246;9.100;2023-02-04T02:24:55;100061.13;;;8.44;97.74
14120;BME280;7138;49.246;9.100;2023-02-04T02:27:21;100060.94;;;8.38;96.67
14120;BME280;7138;49.246;9.100;2023-02-04T02:29:48;100076.44;;;8.40;96.49
14120;BME280;7138;49.246;9.100;2023-02-04T02:32:14;100071.38;;;8.43;96.03
14120;BME280;7138;49.246;9.100;2023-02-04T02:34:42;100072.16;;;8.40;96.37
14120;BME280;7138;49.246;9.100;2023-02-04T02:37:09;100085.88;;;8.39;95.32
14120;BME280;7138;49.246;9.100;2023-02-04T02:39:36;100067.91;;;8.42;95.51
14120;BME280;7138;49.246;9.100;2023-02-04T02:42:05;100069.03;;;8.50;95.74
14120;BME280;7138;49.246;9.100;2023-02-04T02:44:32;100073.22;;;8.47;94.94
14120;BME280;7138;49.246;9.100;2023-02-04T02:46:58;100071.09;;;8.34;95.18
14120;BME280;7138;49.246;9.100;2023-02-04T02:49:26;100084.69;;;8.28;94.84
14120;BME280;7138;49.246;9.100;2023-02-04T02:51:53;100080.63;;;8.36;95.76
14120;BME280;7138;49.246;9.100;2023-02-04T02:54:24;100085.25;;;8.46;96.05
14120;BME280;7138;49.246;9.100;2023-02-04T02:56:52;100083.97;;;8.32;94.59
14120;BME280;7138;49.246;9.100;2023-02-04T02:59:20;100073.78;;;8.37;95.42
14120;BME280;7138;49.246;9.100;2023-02-04T03:01:49;100073.88;;;8.40;94.10
14120;BME280;7138;49.246;9.100;2023-02-04T03:04:18;100075.16;;;8.27;94.17
14120;BME280;7138;49.246;9.100;2023-02-04T03:06:45;100091.91;;;8.40;93.73
14120;BME280;7138;49.246;9.100;2023-02-04T03:09:10;100083.44;;;8.44;94.75
14120;BME280;7138;49.246;9.100;2023-02-04T03:11:36;100082.84;;;8.52;93.82
14120;BME280;7138;49.246;9.100;2023-02-04T03:14:03;100091.91;;;8.40;92.51
14120;BME280;7138;49.246;9.100;2023-02-04T03:16:32;100102.19;;;8.38;92.79
14120;BME280;7138;49.246;9.100;2023-02-04T03:19:00;100106.38;;;8.36;92.01
14120;BME280;7138;49.246;9.100;2023-02-04T03:21:26;100104.94;;;8.44;93.09
14120;BME280;7138;49.246;9.100;2023-02-04T03:23:53;100113.59;;;8.46;93.26
14120;BME280;7138;49.246;9.100;2023-02-04T03:26:24;100123.09;;;8.47;92.67
14120;BME280;7138;49.246;9.100;2023-02-04T03:28:52;100119.63;;;8.47;91.33
14120;BME280;7138;49.246;9.100;2023-02-04T03:31:19;100117.94;;;8.47;92.58
14120;BME280;7138;49.246;9.100;2023-02-04T03:33:46;100122.47;;;8.56;92.54
14120;BME280;7138;49.246;9.100;2023-02-04T03:36:12;100132.16;;;8.63;93.25
14120;BME280;7138;49.246;9.100;2023-02-04T03:38:38;100129.69;;;8.67;92.91
14120;BME280;7138;49.246;9.100;2023-02-04T03:41:04;100121.19;;;8.70;93.31
14120;BME280;7138;49.246;9.100;2023-02-04T03:43:30;100132.47;;;8.73;92.40
14120;BME280;7138;49.246;9.100;2023-02-04T03:45:56;100143.84;;;8.80;92.76
14120;BME280;7138;49.246;9.100;2023-02-04T03:48:21;100145.63;;;8.83;92.66
14120;BME280;7138;49.246;9.100;2023-02-04T03:50:49;100154.34;;;8.88;91.72
14120;BME280;7138;49.246;9.100;2023-02-04T03:53:14;100161.25;;;8.87;91.31
14120;BME280;7138;49.246;9.100;2023-02-04T03:55:40;100161.97;;;8.83;91.28
14120;BME280;7138;49.246;9.100;2023-02-04T03:58:06;100160.28;;;8.84;91.67
14120;BME280;7138;49.246;9.100;2023-02-04T04:00:32;100168.66;;;8.76;90.41
14120;BME280;7138;49.246;9.100;2023-02-04T04:02:58;100179.16;;;8.83;91.31
14120;BME280;7138;49.246;9.100;2023-02-04T04:05:25;100179.22;;;8.84;91.29
14120;BME280;7138;49.246;9.100;2023-02-04T04:07:53;100192.22;;;8.89;91.41
14120;BME280;7138;49.246;9.100;2023-02-04T04:10:19;100190.66;;;8.94;91.97
14120;BME280;7138;49.246;9.100;2023-02-04T04:12:45;100193.38;;;8.98;92.09
14120;BME280;7138;49.246;9.100;2023-02-04T04:15:11;100201.94;;;8.97;91.42
14120;BME280;7138;49.246;9.100;2023-02-04T04:17:37;100203.72;;;9.00;91.66
14120;BME280;7138;49.246;9.100;2023-02-04T04:20:04;100207.09;;;8.97;91.11
14120;BME280;7138;49.246;9.100;2023-02-04T04:22:30;100213.50;;;8.82;89.30
14120;BME280;7138;49.246;9.100;2023-02-04T04:24:58;100217.66;;;8.76;90.05
14120;BME280;7138;49.246;9.100;2023-02-04T04:27:23;100213.19;;;8.71;90.35
14120;BME280;7138;49.246;9.100;2023-02-04T04:29:50;100223.13;;;8.60;89.69
14120;BME280;7138;49.246;9.100;2023-02-04T04:32:16;100224.91;;;8.61;90.74
14120;BME280;7138;49.246;9.100;2023-02-04T04:34:42;100223.22;;;8.62;91.13
14120;BME280;7138;49.246;9.100;2023-02-04T04:37:08;100226.38;;;8.53;91.15
14120;BME280;7138;49.246;9.100;2023-02-04T04:39:34;100236.63;;;8.52;90.80
14120;BME280;7138;49.246;9.100;2023-02-04T04:42:01;100239.09;;;8.49;91.22
14120;BME280;7138;49.246;9.100;2023-02-04T04:44:26;100241.09;;;8.57;91.95
14120;BME280;7138;49.246;9.100;2023-02-04T04:46:52;100236.38;;;8.44;91.54
14120;BME280;7138;49.246;9.100;2023-02-04T04:49:19;100221.25;;;8.28;91.29
14120;BME280;7138;49.246;9.100;2023-02-04T04:51:45;100236.69;;;8.28;91.90
14120;BME280;7138;49.246;9.100;2023-02-04T04:54:10;100231.63;;;8.30;92.20
14120;BME280;7138;49.246;9.100;2023-02-04T04:56:36;100244.59;;;8.33;91.55
14120;BME280;7138;49.246;9.100;2023-02-04T04:59:03;100247.22;;;8.34;92.17
14120;BME280;7138;49.246;9.100;2023-02-04T05:01:29;100248.88;;;8.32;90.70
14120;BME280;7138;49.246;9.100;2023-02-04T05:03:55;100256.72;;;8.35;91.99
14120;BME280;7138;49.246;9.100;2023-02-04T05:06:21;100257.72;;;8.40;92.37
14120;BME280;7138;49.246;9.100;2023-02-04T05:08:50;100255.31;;;8.45;92.33
14120;BME280;7138;49.246;9.100;2023-02-04T05:11:16;100258.59;;;8.41;91.60
14120;BME280;7138;49.246;9.100;2023-02-04T05:13:42;100262.00;;;8.40;91.79
14120;BME280;7138;49.246;9.100;2023-02-04T05:16:09;100257.63;;;8.37;92.06
14120;BME280;7138;49.246;9.100;2023-02-04T05:18:38;100259.38;;;8.38;91.81
14120;BME280;7138;49.246;9.100;2023-02-04T05:21:05;100249.84;;;8.36;92.27
14120;BME280;7138;49.246;9.100;2023-02-04T05:23:31;100255.00;;;8.36;91.66
14120;BME280;7138;49.246;9.100;2023-02-04T05:25:57;100250.59;;;8.33;91.75
14120;BME280;7138;49.246;9.100;2023-02-04T05:28:23;100249.00;;;8.37;92.24
14120;BME280;7138;49.246;9.100;2023-02-04T05:30:48;100249.06;;;8.38;91.48
14120;BME280;7138;49.246;9.100;2023-02-04T05:33:16;100237.63;;;8.30;91.37
14120;BME280;7138;49.246;9.100;2023-02-04T05:35:41;100249.78;;;8.34;92.04
14120;BME280;7138;49.246;9.100;2023-02-04T05:38:07;100250.59;;;8.33;92.31
14120;BME280;7138;49.246;9.100;2023-02-04T05:40:33;100244.59;;;8.33;92.08
14120;BME280;7138;49.246;9.100;2023-02-04T05:42:59;100265.97;;;8.30;91.80
14120;BME280;7138;49.246;9.100;2023-02-04T05:45:25;100276.38;;;8.33;91.39
14120;BME280;7138;49.246;9.100;2023-02-04T05:47:52;100279.78;;;8.32;91.36
14120;BME280;7138;49.246;9.100;2023-02-04T05:50:19;100289.25;;;8.33;91.45
14120;BME280;7138;49.246;9.100;2023-02-04T05:52:45;100285.88;;;8.34;91.30
14120;BME280;7138;49.246;9.100;2023-02-04T05:55:11;100295.25;;;8.32;91.18
14120;BME280;7138;49.246;9.100;2023-02-04T05:57:38;100301.22;;;8.31;91.31
14120;BME280;7138;49.246;9.100;2023-02-04T06:00:06;100305.50;;;8.31;91.47
14120;BME280;7138;49.246;9.100;2023-02-04T06:02:31;100300.06;;;8.23;91.20
14120;BME280;7138;49.246;9.100;2023-02-04T06:04:58;100305.88;;;8.17;91.19
14120;BME280;7138;49.246;9.100;2023-02-04T06:07:26;100302.25;;;8.12;90.90
14120;BME280;7138;49.246;9.100;2023-02-04T06:09:52;100313.88;;;8.01;90.78
14120;BME280;7138;49.246;9.100;2023-02-04T06:12:17;100304.38;;;7.99;90.39
14120;BME280;7138;49.246;9.100;2023-02-04T06:14:43;100312.53;;;7.87;90.01
14120;BME280;7138;49.246;9.100;2023-02-04T06:17:09;100313.81;;;7.76;90.33
14120;BME280;7138;49.246;9.100;2023-02-04T06:19:35;100326.44;;;7.68;90.22
14120;BME280;7138;49.246;9.100;2023-02-04T06:22:01;100316.75;;;7.63;90.51
14120;BME280;7138;49.246;9.100;2023-02-04T06:24:28;100320.09;;;7.60;91.09
14120;BME280;7138;49.246;9.100;2023-02-04T06:26:54;100318.28;;;7.58;89.86
14120;BME280;7138;49.246;9.100;2023-02-04T06:29:19;100323.28;;;7.53;90.65
14120;BME280;7138;49.246;9.100;2023-02-04T06:31:45;100325.03;;;7.54;90.52
14120;BME280;7138;49.246;9.100;2023-02-04T06:34:13;100332.34;;;7.44;89.83
14120;BME280;7138;49.246;9.100;2023-02-04T06:36:39;100329.00;;;7.46;90.14
14120;BME280;7138;49.246;9.100;2023-02-04T06:39:05;100338.16;;;7.38;89.99
14120;BME280;7138;49.246;9.100;2023-02-04T06:41:32;100342.53;;;7.41;89.97
14120;BME280;7138;49.246;9.100;2023-02-04T06:43:58;100329.81;;;7.45;90.38
14120;BME280;7138;49.246;9.100;2023-02-04T06:46:23;100332.50;;;7.48;90.68
14120;BME280;7138;49.246;9.100;2023-02-04T06:48:49;100335.28;;;7.53;91.73
14120;BME280;7138;49.246;9.100;2023-02-04T06:51:15;100335.38;;;7.56;90.82
14120;BME280;7138;49.246;9.100;2023-02-04T06:53:41;100334.66;;;7.60;90.56
14120;BME280;7138;49.246;9.100;2023-02-04T06:56:09;100331.34;;;7.62;91.01
14120;BME280;7138;49.246;9.100;2023-02-04T06:58:37;100348.50;;;7.62;90.41
14120;BME280;7138;49.246;9.100;2023-02-04T07:01:03;100353.53;;;7.59;89.50
14120;BME280;7138;49.246;9.100;2023-02-04T07:03:30;100359.44;;;7.56;89.27
14120;BME280;7138;49.246;9.100;2023-02-04T07:05:56;100383.44;;;7.57;88.79
14120;BME280;7138;49.246;9.100;2023-02-04T07:08:22;100380.63;;;7.51;88.87
14120;BME280;7138;49.246;9.100;2023-02-04T07:10:48;100377.91;;;7.46;88.95
14120;BME280;7138;49.246;9.100;2023-02-04T07:13:14;100373.56;;;7.45;89.97
14120;BME280;7138;49.246;9.100;2023-02-04T07:15:41;100380.53;;;7.48;89.86
14120;BME280;7138;49.246;9.100;2023-02-04T07:18:07;100384.47;;;7.38;90.00
14120;BME280;7138;49.246;9.100;2023-02-04T07:20:33;100385.19;;;7.36;90.14
14120;BME280;7138;49.246;9.100;2023-02-04T07:22:58;100390.41;;;7.37;91.01
14120;BME280;7138;49.246;9.100;2023-02-04T07:25:24;100396.25;;;7.33;90.56
14120;BME280;7138;49.246;9.100;2023-02-04T07:27:50;100400.47;;;7.31;90.76
14120;BME280;7138;49.246;9.100;2023-02-04T07:30:16;100394.41;;;7.29;91.52
14120;BME280;7138;49.246;9.100;2023-02-04T07:32:44;100389.13;;;7.26;91.19
14120;BME280;7138;49.246;9.100;2023-02-04T07:35:09;100395.88;;;7.24;90.53
14120;BME280;7138;49.246;9.100;2023-02-04T07:37:37;100404.38;;;7.22;90.99
14120;BME280;7138;49.246;9.100;2023-02-04T07:40:04;100399.84;;;7.16;90.49
14120;BME280;7138;49.246;9.100;2023-02-04T07:42:30;100411.78;;;7.14;90.57
14120;BME280;7138;49.246;9.100;2023-02-04T07:44:55;100420.22;;;7.11;89.79
14120;BME280;7138;49.246;9.100;2023-02-04T07:47:21;100427.50;;;7.22;90.66
14120;BME280;7138;49.246;9.100;2023-02-04T07:49:48;100429.84;;;7.15;89.90
14120;BME280;7138;49.246;9.100;2023-02-04T07:52:15;100439.44;;;7.20;90.18
14120;BME280;7138;49.246;9.100;2023-02-04T07:54:41;100443.53;;;7.35;90.79
14120;BME280;7138;49.246;9.100;2023-02-04T07:57:07;100436.78;;;7.39;90.54
14120;BME280;7138;49.246;9.100;2023-02-04T07:59:33;100441.91;;;7.39;90.45
14120;BME280;7138;49.246;9.100;2023-02-04T08:01:59;100439.53;;;7.43;90.65
14120;BME280;7138;49.246;9.100;2023-02-04T08:04:26;100437.91;;;7.45;89.81
14120;BME280;7138;49.246;9.100;2023-02-04T08:06:54;100446.25;;;7.40;88.50
14120;BME280;7138;49.246;9.100;2023-02-04T08:09:19;100447.72;;;7.33;89.05
14120;BME280;7138;49.246;9.100;2023-02-04T08:11:45;100458.25;;;7.39;88.70
14120;BME280;7138;49.246;9.100;2023-02-04T08:14:12;100450.72;;;7.44;88.88
14120;BME280;7138;49.246;9.100;2023-02-04T08:16:38;100457.84;;;7.51;89.64
14120;BME280;7138;49.246;9.100;2023-02-04T08:19:04;100461.53;;;7.57;89.10
14120;BME280;7138;49.246;9.100;2023-02-04T08:21:30;100461.63;;;7.59;88.96
14120;BME280;7138;49.246;9.100;2023-02-04T08:23:57;100461.66;;;7.60;89.66
14120;BME280;7138;49.246;9.100;2023-02-04T08:26:23;100464.38;;;7.63;88.88
14120;BME280;7138;49.246;9.100;2023-02-04T08:28:49;100474.50;;;7.59;88.93
14120;BME280;7138;49.246;9.100;2023-02-04T08:31:14;100472.94;;;7.62;89.50
14120;BME280;7138;49.246;9.100;2023-02-04T08:33:40;100474.00;;;7.69;88.94
14120;BME280;7138;49.246;9.100;2023-02-04T08:36:07;100470.00;;;7.76;90.10
14120;BME280;7138;49.246;9.100;2023-02-04T08:38:33;100472.91;;;7.85;89.26
14120;BME280;7138;49.246;9.100;2023-02-04T08:41:00;100476.56;;;7.90;88.34
14120;BME280;7138;49.246;9.100;2023-02-04T08:43:26;100484.56;;;7.97;88.90
14120;BME280;7138;49.246;9.100;2023-02-04T08:45:52;100474.38;;;8.00;89.69
14120;BME280;7138;49.246;9.100;2023-02-04T08:48:18;100485.03;;;8.09;89.04
14120;BME280;7138;49.246;9.100;2023-02-04T08:50:43;100495.34;;;8.09;88.14
14120;BME280;7138;49.246;9.100;2023-02-04T08:53:09;100494.19;;;8.01;88.39
14120;BME280;7138;49.246;9.100;2023-02-04T08:55:35;100502.56;;;7.96;87.42
14120;BME280;7138;49.246;9.100;2023-02-04T08:58:02;100503.50;;;7.98;88.57
14120;BME280;7138;49.246;9.100;2023-02-04T09:00:28;100510.66;;;8.05;88.06
14120;BME280;7138;49.246;9.100;2023-02-04T09:02:55;100504.59;;;8.04;88.08
14120;BME280;7138;49.246;9.100;2023-02-04T09:05:21;100518.59;;;8.11;87.62
14120;BME280;7138;49.246;9.100;2023-02-04T09:07:47;100520.34;;;8.12;88.00
14120;BME280;7138;49.246;9.100;2023-02-04T09:10:12;100512.38;;;8.06;87.83
14120;BME280;7138;49.246;9.100;2023-02-04T09:12:38;100517.66;;;8.09;87.58
14120;BME280;7138;49.246;9.100;2023-02-04T09:15:08;100519.28;;;8.07;87.21
14120;BME280;7138;49.246;9.100;2023-02-04T09:17:35;100519.84;;;8.20;87.78
14120;BME280;7138;49.246;9.100;2023-02-04T09:20:02;100518.47;;;8.29;88.35
14120;BME280;7138;49.246;9.100;2023-02-04T09:22:28;100528.09;;;8.34;87.65
14120;BME280;7138;49.246;9.100;2023-02-04T09:24:54;100516.03;;;8.33;87.19
14120;BME280;7138;49.246;9.100;2023-02-04T09:27:20;100519.13;;;8.47;87.07
14120;BME280;7138;49.246;9.100;2023-02-04T09:29:46;100520.34;;;8.56;87.00
14120;BME280;7138;49.246;9.100;2023-02-04T09:32:13;100531.72;;;8.61;86.94
14120;BME280;7138;49.246;9.100;2023-02-04T09:34:39;100540.75;;;8.50;85.62
14120;BME280;7138;49.246;9.100;2023-02-04T09:37:05;100545.84;;;8.49;86.50
14120;BME280;7138;49.246;9.100;2023-02-04T09:39:31;100551.09;;;8.52;86.47
14120;BME280;7138;49.246;9.100;2023-02-04T09:41:58;100543.56;;;8.56;85.23
14120;BME280;7138;49.246;9.100;2023-02-04T09:44:26;100541.25;;;8.64;85.77
14120;BME280;7138;49.246;9.100;2023-02-04T09:46:57;100540.78;;;8.74;86.11
14120;BME280;7138;49.246;9.100;2023-02-04T09:49:26;100543.59;;;8.82;85.70
14120;BME280;7138;49.246;9.100;2023-02-04T09:51:53;100540.50;;;8.90;85.26
14120;BME280;7138;49.246;9.100;2023-02-04T09:54:22;100546.84;;;9.00;85.75
14120;BME280;7138;49.246;9.100;2023-02-04T09:56:48;100542.84;;;9.08;85.18
14120;BME280;7138;49.246;9.100;2023-02-04T09:59:18;100548.00;;;9.08;83.81
14120;BME280;7138;49.246;9.100;2023-02-04T10:01:47;100553.16;;;9.08;83.64
14120;BME280;7138;49.246;9.100;2023-02-04T10:04:21;100555.69;;;9.06;83.77
14120;BME280;7138;49.246;9.100;2023-02-04T10:06:49;100547.66;;;9.22;84.71
14120;BME280;7138;49.246;9.100;2023-02-04T10:09:15;100540.22;;;9.31;83.48
14120;BME280;7138;49.246;9.100;2023-02-04T10:11:45;100554.06;;;9.33;83.92
14120;BME280;7138;49.246;9.100;2023-02-04T10:14:15;100549.78;;;9.34;84.16
14120;BME280;7138;49.246;9.100;2023-02-04T10:16:50;100553.19;;;9.33;83.23
14120;BME280;7138;49.246;9.100;2023-02-04T10:19:17;100565.53;;;9.42;83.88
14120;BME280;7138;49.246;9.100;2023-02-04T10:21:46;100563.38;;;9.54;83.54
14120;BME280;7138;49.246;9.100;2023-02-04T10:24:16;100557.81;;;9.68;86.00
14120;BME280;7138;49.246;9.100;2023-02-04T10:26:43;100560.94;;;9.58;83.23
14120;BME280;7138;49.246;9.100;2023-02-04T10:29:14;100550.97;;;9.69;84.03
14120;BME280;7138;49.246;9.100;2023-02-04T10:31:42;100557.56;;;9.61;82.59
14120;BME280;7138;49.246;9.100;2023-02-04T10:34:12;100568.19;;;9.70;82.62
14120;BME280;7138;49.246;9.100;2023-02-04T10:36:40;100563.97;;;9.72;83.95
14120;BME280;7138;49.246;9.100;2023-02-04T10:39:13;100570.03;;;9.72;84.73
14120;BME280;7138;49.246;9.100;2023-02-04T10:41:46;100571.84;;;9.76;82.35
14120;BME280;7138;49.246;9.100;2023-02-04T10:44:15;100570.53;;;9.87;84.12
14120;BME280;7138;49.246;9.100;2023-02-04T10:46:42;100569.94;;;9.96;83.42
14120;BME280;7138;49.246;9.100;2023-02-04T10:49:18;100577.13;;;10.06;81.69
14120;BME280;7138;49.246;9.100;2023-02-04T10:51:46;100570.34;;;10.10;81.79
14120;BME280;7138;49.246;9.100;2023-02-04T10:54:14;100582.06;;;10.24;81.26
14120;BME280;7138;49.246;9.100;2023-02-04T10:56:57;100577.88;;;10.29;82.55
14120;BME280;7138;49.246;9.100;2023-02-04T10:59:25;100583.16;;;10.32;81.45
14120;BME280;7138;49.246;9.100;2023-02-04T11:01:54;100578.78;;;10.29;81.23
14120;BME280;7138;49.246;9.100;2023-02-04T11:04:20;100587.31;;;10.27;82.31
14120;BME280;7138;49.246;9.100;2023-02-04T11:06:46;100575.41;;;10.32;82.71
14120;BME280;7138;49.246;9.100;2023-02-04T11:09:14;100584.84;;;10.31;82.42
14120;BME280;7138;49.246;9.100;2023-02-04T11:11:45;100559.41;;;10.17;83.27
14120;BME280;7138;49.246;9.100;2023-02-04T11:14:23;100588.13;;;10.26;84.52
14120;BME280;7138;49.246;9.100;2023-02-04T11:16:50;100583.59;;;10.19;85.61
14120;BME280;7138;49.246;9.100;2023-02-04T11:19:32;100587.44;;;10.05;85.68
14120;BME280;7138;49.246;9.100;2023-02-04T11:22:20;100580.00;;;9.88;86.50
14120;BME280;7138;49.246;9.100;2023-02-04T11:24:49;100595.97;;;9.75;86.54
14120;BME280;7138;49.246;9.100;2023-02-04T11:27:24;100593.47;;;9.78;87.74
14120;BME280;7138;49.246;9.100;2023-02-04T11:30:05;100593.06;;;9.66;88.59
14120;BME280;7138;49.246;9.100;2023-02-04T11:32:55;100586.06;;;9.64;89.09
14120;BME280;7138;49.246;9.100;2023-02-04T11:35:26;100585.75;;;9.55;89.38
14120;BME280;7138;49.246;9.100;2023-02-04T11:37:54;100584.75;;;9.50;90.02
14120;BME280;7138;49.246;9.100;2023-02-04T11:40:29;100588.25;;;9.52;90.42
14120;BME280;7138;49.246;9.100;2023-02-04T11:42:59;100567.28;;;9.43;89.49
14120;BME280;7138;49.246;9.100;2023-02-04T11:45:31;100585.72;;;9.53;88.29
14120;BME280;7138;49.246;9.100;2023-02-04T11:48:01;100588.41;;;9.56;88.64
14120;BME280;7138;49.246;9.100;2023-02-04T11:50:30;100592.09;;;9.63;89.50
14120;BME280;7138;49.246;9.100;2023-02-04T11:52:58;100585.97;;;9.61;88.63
14120;BME280;7138;49.246;9.100;2023-02-04T11:55:29;100587.22;;;9.72;89.94
14120;BME280;7138;49.246;9.100;2023-02-04T11:57:56;100592.41;;;9.73;86.99
14120;BME280;7138;49.246;9.100;2023-02-04T12:00:25;100593.81;;;9.89;87.26
14120;BME280;7138;49.246;9.100;2023-02-04T12:02:58;100590.94;;;10.07;86.21
14120;BME280;7138;49.246;9.100;2023-02-04T12:05:38;100588.81;;;10.20;88.31
14120;BME280;7138;49.246;9.100;2023-02-04T12:08:11;100591.59;;;10.26;82.75
14120;BME280;7138;49.246;9.100;2023-02-04T12:10:46;100593.66;;;10.36;82.08
14120;BME280;7138;49.246;9.100;2023-02-04T12:13:17;100585.03;;;10.37;81.92
14120;BME280;7138;49.246;9.100;2023-02-04T12:15:54;100587.03;;;10.46;78.88
14120;BME280;7138;49.246;9.100;2023-02-04T12:18:20;100587.09;;;10.48;79.64
14120;BME280;7138;49.246;9.100;2023-02-04T12:20:46;100589.59;;;10.46;80.35
14120;BME280;7138;49.246;9.100;2023-02-04T12:23:11;100585.28;;;10.45;80.67
14120;BME280;7138;49.246;9.100;2023-02-04T12:25:38;100586.09;;;10.44;79.46
14120;BME280;7138;49.246;9.100;2023-02-04T12:28:04;100590.31;;;10.40;80.21
14120;BME280;7138;49.246;9.100;2023-02-04T12:30:30;100584.34;;;10.43;80.55
14120;BME280;7138;49.246;9.100;2023-02-04T12:32:56;100585.84;;;10.35;80.16
14120;BME280;7138;49.246;9.100;2023-02-04T12:35:22;100591.50;;;10.23;79.57
14120;BME280;7138;49.246;9.100;2023-02-04T12:37:48;100596.00;;;10.29;79.83
14120;BME280;7138;49.246;9.100;2023-02-04T12:40:15;100594.50;;;10.37;80.95
14120;BME280;7138;49.246;9.100;2023-02-04T12:42:43;100581.13;;;10.50;79.21
14120;BME280;7138;49.246;9.100;2023-02-04T12:45:11;100584.06;;;10.62;79.89
14120;BME280;7138;49.246;9.100;2023-02-04T12:47:38;100578.34;;;10.72;78.53
14120;BME280;7138;49.246;9.100;2023-02-04T12:50:05;100575.16;;;10.82;78.57
14120;BME280;7138;49.246;9.100;2023-02-04T12:52:33;100576.38;;;10.95;79.65
14120;BME280;7138;49.246;9.100;2023-02-04T12:54:59;100579.41;;;11.10;77.87
14120;BME280;7138;49.246;9.100;2023-02-04T12:57:26;100580.53;;;11.20;75.70
14120;BME280;7138;49.246;9.100;2023-02-04T12:59:53;100582.88;;;11.11;74.88
14120;BME280;7138;49.246;9.100;2023-02-04T13:02:22;100583.78;;;11.13;76.05
14120;BME280;7138;49.246;9.100;2023-02-04T13:04:48;100577.78;;;11.14;75.95
14120;BME280;7138;49.246;9.100;2023-02-04T13:07:13;100570.25;;;11.21;76.64